Time;durP1;ratioP1;P1;durP2;ratioP2;P2;SDS_P1;SDS_P2;PMS_P1;PMS_P2;Temp;Humidity;BMP_temperature;BMP_pressure;BME280_temperature;BME280_humidity;BME280_pressure;Samples;Min_cycle;Max_cycle;Signal;HPM_P1;HPM_P2
2020/12/31 00:00:16;;;;;;;1.92;0.60;;;19.90;12.50;;;;;;5117367;27;20016;-59
2020/12/31 00:02:42;;;;;;;4.13;0.80;;;19.80;12.90;;;;;;5120440;27;20480;-60
2020/12/31 00:05:09;;;;;;;2.67;1.25;;;19.70;12.70;;;;;;5116369;27;20050;-57
2020/12/31 00:07:35;;;;;;;1.15;0.60;;;;;;;;;;5114936;27;20046;-59
2020/12/31 00:10:03;;;;;;;1.23;0.75;;;19.60;28.80;;;;;;5120214;27;20027;-61
2020/12/31 00:12:29;;;;;;;5.55;1.02;;;19.50;32.90;;;;;;5116671;27;20387;-58
2020/12/31 00:14:56;;;;;;;10.30;1.20;;;19.60;13.60;;;;;;5117559;27;20050;-58
2020/12/31 00:17:22;;;;;;;10.32;0.90;;;19.50;14.00;;;;;;5091633;27;20503;-60
2020/12/31 00:19:49;;;;;;;3.88;1.27;;;19.40;13.10;;;;;;5087014;28;20043;-58
2020/12/31 00:22:15;;;;;;;;;;;19.30;13.20;;;;;;5089655;28;20612;-60
2020/12/31 00:24:41;;;;;;;1.00;0.65;;;19.30;13.30;;;;;;5087102;28;20461;-57
2020/12/31 00:27:08;;;;;;;5.47;2.05;;;19.20;13.20;;;;;;5091079;28;20041;-60
2020/12/31 00:29:35;;;;;;;6.10;2.45;;;19.10;13.10;;;;;;5095298;28;20595;-60
2020/12/31 00:32:01;;;;;;;6.35;1.50;;;19.00;13.60;;;;;;5093498;28;20064;-59
2020/12/31 00:34:28;;;;;;;1.17;0.60;;;18.90;13.60;;;;;;5087072;28;20083;-58
2020/12/31 00:36:54;;;;;;;;;;;18.80;13.40;;;;;;5092051;28;20108;-59
2020/12/31 00:39:21;;;;;;;1.90;0.60;;;18.70;13.30;;;;;;5117343;27;20037;-56
2020/12/31 00:41:47;;;;;;;3.75;1.10;;;18.70;13.50;;;;;;5121365;27;20100;-63
2020/12/31 00:44:13;;;;;;;;;;;18.50;38.60;;;;;;5121325;27;20439;-62
2020/12/31 00:46:40;;;;;;;8.02;1.77;;;18.40;14.10;;;;;;5111753;27;19935;-59
2020/12/31 00:49:07;;;;;;;10.63;1.77;;;18.40;14.60;;;;;;5110773;27;20468;-60
2020/12/31 00:51:34;;;;;;;19.38;4.13;;;18.20;15.00;;;;;;5103457;28;20042;-58
2020/12/31 00:54:00;;;;;;;31.52;5.25;;;18.10;14.80;;;;;;5107876;28;20501;-58
2020/12/31 00:56:26;;;;;;;;;;;17.80;15.20;;;;;;5107164;28;20040;-60
2020/12/31 00:58:53;;;;;;;24.23;3.08;;;17.30;19.90;;;;;;5108372;28;20395;-58
2020/12/31 01:01:20;;;;;;;17.33;2.70;;;17.60;17.00;;;;;;5108510;28;20123;-57
2020/12/31 01:03:47;;;;;;;8.15;2.22;;;17.80;25.80;;;;;;5107956;28;20034;-61
2020/12/31 01:06:14;;;;;;;16.85;3.00;;;;;;;;;;5108550;28;20016;-59
2020/12/31 01:08:40;;;;;;;20.90;2.60;;;15.80;36.70;;;;;;5110429;28;20511;-59
2020/12/31 01:11:06;;;;;;;;;;;17.00;46.40;;;;;;5104698;27;20035;-57
2020/12/31 01:13:33;;;;;;;12.90;2.53;;;16.80;18.20;;;;;;5108471;28;19952;-60
2020/12/31 01:15:59;;;;;;;;;;;16.80;18.70;;;;;;5108581;28;20040;-60
2020/12/31 01:18:25;;;;;;;26.02;3.50;;;16.60;18.70;;;;;;5109842;28;19931;-61
2020/12/31 01:20:52;;;;;;;;;;;16.80;23.40;;;;;;5107647;28;20070;-61
2020/12/31 01:23:18;;;;;;;25.25;4.50;;;16.40;22.20;;;;;;5092661;28;19907;-60
2020/12/31 01:25:44;;;;;;;;;;;;;;;;;;5108863;28;20024;-60
2020/12/31 01:28:11;;;;;;;24.80;4.82;;;16.10;20.40;;;;;;5107468;28;19907;-61
2020/12/31 01:30:38;;;;;;;21.70;4.57;;;16.00;20.70;;;;;;5109695;28;20032;-60
2020/12/31 01:33:04;;;;;;;;;;;16.00;21.20;;;;;;5108098;28;20424;-61
2020/12/31 01:35:30;;;;;;;21.75;5.00;;;15.80;21.70;;;;;;5107085;28;19951;-59
2020/12/31 01:37:56;;;;;;;;;;;15.70;22.00;;;;;;5105876;28;20035;-61
2020/12/31 01:40:23;;;;;;;23.15;4.38;;;15.60;22.70;;;;;;5103352;28;19960;-60
2020/12/31 01:42:49;;;;;;;;;;;15.50;23.10;;;;;;5105992;28;20352;-58
2020/12/31 01:45:15;;;;;;;19.10;4.65;;;15.40;24.00;;;;;;5108262;28;19931;-59
2020/12/31 01:47:42;;;;;;;;;;;15.40;24.10;;;;;;5079252;28;20092;-60
2020/12/31 01:50:08;;;;;;;17.10;3.67;;;15.10;46.40;;;;;;5094251;28;20005;-55
2020/12/31 01:52:35;;;;;;;17.60;4.13;;;15.10;39.40;;;;;;5098986;28;20034;-56
2020/12/31 01:55:03;;;;;;;22.35;5.10;;;15.10;24.10;;;;;;5084349;28;20175;-56
2020/12/31 01:57:30;;;;;;;15.30;4.55;;;14.90;24.50;;;;;;5084119;28;20403;-59
2020/12/31 01:59:57;;;;;;;18.63;4.10;;;14.90;25.50;;;;;;5100699;28;20059;-55
2020/12/31 02:02:25;;;;;;;17.75;4.63;;;14.80;25.40;;;;;;5098837;28;20062;-55
2020/12/31 02:04:53;;;;;;;23.70;5.80;;;14.50;43.00;;;;;;5096917;28;20035;-56
2020/12/31 02:07:21;;;;;;;13.73;4.45;;;14.60;24.50;;;;;;5099959;28;20147;-56
2020/12/31 02:09:48;;;;;;;19.30;4.63;;;14.50;24.20;;;;;;5098879;28;20056;-59
2020/12/31 02:12:15;;;;;;;27.27;5.05;;;14.50;24.20;;;;;;5100406;28;20154;-58
2020/12/31 02:14:52;;;;;;;23.80;5.50;;;14.50;24.50;;;;;;5104864;28;20143;-57
2020/12/31 02:17:20;;;;;;;31.13;6.05;;;14.40;26.00;;;;;;5102476;28;20378;-58
2020/12/31 02:19:46;;;;;;;33.50;7.07;;;14.30;25.90;;;;;;5103106;28;20086;-59
2020/12/31 02:22:13;;;;;;;;;;;14.30;25.70;;;;;;5098724;28;20024;-58
2020/12/31 02:24:39;;;;;;;50.05;8.98;;;14.30;32.20;;;;;;5098169;28;19964;-59
2020/12/31 02:27:05;;;;;;;;;;;14.20;26.80;;;;;;5101856;28;20519;-58
2020/12/31 02:29:32;;;;;;;40.15;8.98;;;14.20;27.00;;;;;;5101928;28;20460;-59
2020/12/31 02:31:59;;;;;;;32.08;8.93;;;14.10;27.10;;;;;;5098787;28;20508;-60
2020/12/31 02:34:26;;;;;;;;;;;14.00;26.70;;;;;;5100677;28;20051;-56
2020/12/31 02:36:52;;;;;;;31.87;9.97;;;14.00;27.00;;;;;;5102282;28;19954;-57
2020/12/31 02:39:19;;;;;;;39.40;10.63;;;13.90;27.40;;;;;;5098775;28;20142;-61
2020/12/31 02:41:46;;;;;;;52.17;11.05;;;13.80;27.40;;;;;;5096390;28;20060;-60
2020/12/31 02:44:14;;;;;;;42.78;10.02;;;13.80;27.60;;;;;;5098120;28;20107;-60
2020/12/31 02:46:41;;;;;;;40.95;9.90;;;13.70;28.00;;;;;;5099580;28;20095;-58
2020/12/31 02:49:08;;;;;;;63.80;11.70;;;13.60;27.70;;;;;;5099899;28;20116;-59
2020/12/31 02:51:35;;;;;;;35.28;11.43;;;13.40;27.80;;;;;;5081658;28;20064;-56
2020/12/31 02:54:02;;;;;;;56.03;17.52;;;13.10;57.10;;;;;;5092703;28;20020;-59
2020/12/31 02:56:29;;;;;;;78.70;21.02;;;13.40;27.80;;;;;;5082158;28;21591;-59
2020/12/31 02:58:55;;;;;;;;;;;13.40;27.60;;;;;;5101929;28;20067;-59
2020/12/31 03:01:22;;;;;;;69.82;16.88;;;13.40;28.10;;;;;;5104580;28;20000;-59
2020/12/31 03:03:50;;;;;;;63.08;13.82;;;13.40;29.00;;;;;;5104272;28;20546;-61
2020/12/31 03:06:17;;;;;;;66.35;15.20;;;13.30;29.20;;;;;;5108761;28;20061;-56
2020/12/31 03:08:44;;;;;;;73.85;17.67;;;13.20;28.80;;;;;;5108752;28;20071;-58
2020/12/31 03:11:22;;;;;;;81.07;17.70;;;13.10;28.70;;;;;;5110766;28;20088;-58
2020/12/31 03:13:50;;;;;;;69.68;17.50;;;13.10;28.30;;;;;;5108445;28;20066;-59
2020/12/31 03:16:17;;;;;;;73.10;18.65;;;13.10;28.30;;;;;;5108963;28;20062;-58
2020/12/31 03:18:43;;;;;;;69.13;17.98;;;13.10;28.70;;;;;;5109547;28;20062;-60
2020/12/31 03:21:10;;;;;;;;;;;13.00;28.50;;;;;;5104860;28;20184;-60
2020/12/31 03:23:36;;;;;;;77.65;18.80;;;12.90;28.90;;;;;;5106365;28;19947;-57
2020/12/31 03:26:03;;;;;;;81.60;19.48;;;12.70;29.30;;;;;;5105859;28;20067;-54
2020/12/31 03:28:30;;;;;;;77.55;19.48;;;12.80;29.40;;;;;;5110380;28;20435;-57
2020/12/31 03:30:57;;;;;;;92.40;19.90;;;12.80;29.80;;;;;;5106885;28;20178;-59
2020/12/31 03:33:23;;;;;;;;;;;12.80;30.50;;;;;;5105846;28;20063;-60
2020/12/31 03:35:50;;;;;;;89.88;21.58;;;12.70;31.10;;;;;;5089708;28;19949;-56
2020/12/31 03:38:18;;;;;;;88.80;20.92;;;12.70;31.10;;;;;;5101525;28;20063;-56
2020/12/31 03:40:45;;;;;;;88.88;21.67;;;12.60;31.10;;;;;;5107546;28;20072;-56
2020/12/31 03:43:11;;;;;;;;;;;12.60;30.80;;;;;;5089998;28;20060;-60
2020/12/31 03:45:40;;;;;;;100.75;25.23;;;12.50;30.80;;;;;;5097302;28;20014;-59
2020/12/31 03:48:06;;;;;;;106.50;23.08;;;12.40;30.60;;;;;;5102190;28;20627;-58
2020/12/31 03:50:33;;;;;;;;;;;12.40;30.40;;;;;;5108434;28;21466;-57
2020/12/31 03:52:59;;;;;;;123.03;29.60;;;12.30;37.40;;;;;;5101342;28;20469;-58
2020/12/31 03:55:25;;;;;;;;;;;12.40;53.90;;;;;;5105666;28;20055;-59
2020/12/31 03:57:52;;;;;;;113.90;37.90;;;;;;;;;;5101427;28;20360;-58
2020/12/31 04:00:19;;;;;;;146.07;40.03;;;12.20;55.60;;;;;;5101666;28;20119;-59
2020/12/31 04:02:45;;;;;;;;;;;12.20;31.20;;;;;;5108173;28;20054;-58
2020/12/31 04:05:11;;;;;;;115.40;35.63;;;12.20;31.40;;;;;;5104196;28;19933;-58
2020/12/31 04:07:38;;;;;;;118.75;36.15;;;12.40;43.90;;;;;;5103207;28;20031;-59
2020/12/31 04:10:05;;;;;;;126.43;36.20;;;12.10;31.40;;;;;;5103085;28;20461;-59
2020/12/31 04:12:32;;;;;;;116.70;33.95;;;12.10;32.20;;;;;;5098174;28;20053;-60
2020/12/31 04:14:59;;;;;;;129.93;33.92;;;12.00;32.20;;;;;;5104676;28;20118;-60
2020/12/31 04:17:25;;;;;;;;;;;11.90;61.30;;;;;;5103898;28;20016;-59
2020/12/31 04:19:51;;;;;;;131.52;32.55;;;12.10;32.40;;;;;;5109884;28;19925;-60
2020/12/31 04:22:18;;;;;;;;;;;12.10;32.20;;;;;;5107643;28;20493;-60
2020/12/31 04:24:45;;;;;;;141.05;34.13;;;12.00;33.70;;;;;;5088819;28;20321;-59
2020/12/31 04:27:11;;;;;;;149.50;36.95;;;12.10;59.60;;;;;;5104153;28;20027;-59
2020/12/31 04:29:38;;;;;;;151.77;36.05;;;12.00;33.50;;;;;;5109171;28;20132;-59
2020/12/31 04:32:05;;;;;;;136.13;34.28;;;12.10;33.80;;;;;;5107884;28;20063;-58
2020/12/31 04:34:32;;;;;;;131.70;36.03;;;12.00;33.50;;;;;;5108963;28;20069;-59
2020/12/31 04:36:58;;;;;;;;;;;12.00;33.30;;;;;;5108323;28;20091;-60
2020/12/31 04:39:24;;;;;;;169.88;36.75;;;12.00;32.80;;;;;;5106456;28;19949;-57
2020/12/31 04:41:57;;;;;;;139.82;34.88;;;11.90;32.60;;;;;;5109651;28;20097;-58
2020/12/31 04:44:24;;;;;;;129.85;36.28;;;11.90;31.10;;;;;;5107500;28;20068;-59
2020/12/31 04:46:55;;;;;;;149.93;37.92;;;11.80;31.70;;;;;;5108658;28;20515;-57
2020/12/31 04:49:42;;;;;;;154.68;40.65;;;11.70;31.70;;;;;;5108304;28;20117;-59
2020/12/31 04:52:09;;;;;;;;;;;11.70;31.80;;;;;;5087710;28;20571;-59
2020/12/31 04:54:39;;;;;;;141.50;37.15;;;11.70;32.20;;;;;;5104373;28;19977;-59
2020/12/31 04:57:06;;;;;;;143.27;38.03;;;11.60;32.10;;;;;;5096951;28;20064;-58
2020/12/31 04:59:33;;;;;;;161.82;40.85;;;11.50;31.80;;;;;;5107522;28;20098;-60
2020/12/31 05:01:59;;;;;;;177.00;41.67;;;11.50;32.10;;;;;;5102807;28;20074;-62
2020/12/31 05:04:25;;;;;;;;;;;11.50;32.60;;;;;;5100944;28;20056;-57
2020/12/31 05:06:57;;;;;;;157.45;38.15;;;11.50;32.70;;;;;;5087462;28;20039;-60
2020/12/31 05:09:24;;;;;;;150.60;40.42;;;11.50;33.10;;;;;;5095026;28;20061;-61
2020/12/31 05:11:54;;;;;;;;;;;11.50;33.50;;;;;;5088308;28;20077;-61
2020/12/31 05:14:33;;;;;;;171.75;41.22;;;11.40;33.60;;;;;;5105079;28;20404;-61
2020/12/31 05:17:17;;;;;;;168.13;41.50;;;11.40;34.00;;;;;;5106944;28;20522;-60
2020/12/31 05:19:44;;;;;;;161.98;42.38;;;11.40;35.00;;;;;;5104701;28;20072;-60
2020/12/31 05:22:13;;;;;;;162.18;41.47;;;11.40;35.60;;;;;;5095422;28;20210;-60
2020/12/31 05:24:53;;;;;;;154.43;40.67;;;11.40;35.90;;;;;;5099165;28;20581;-59
2020/12/31 05:27:26;;;;;;;185.38;41.42;;;11.30;34.70;;;;;;5087150;28;20060;-60
2020/12/31 05:30:09;;;;;;;140.80;41.13;;;11.40;34.00;;;;;;5104236;28;20258;-60
2020/12/31 05:32:38;;;;;;;156.73;41.22;;;11.40;34.30;;;;;;5102822;28;20564;-59
2020/12/31 05:35:17;;;;;;;146.35;40.78;;;11.30;33.70;;;;;;5103714;28;20105;-60
2020/12/31 05:37:44;;;;;;;151.43;40.85;;;11.30;33.60;;;;;;5103193;28;20148;-57
2020/12/31 05:40:12;;;;;;;161.00;41.75;;;11.30;33.70;;;;;;5102416;28;20089;-63
2020/12/31 05:42:55;;;;;;;148.20;42.78;;;11.30;34.30;;;;;;5104465;28;20061;-62
2020/12/31 05:45:27;;;;;;;155.02;42.40;;;11.30;35.00;;;;;;5089607;28;20073;-60
2020/12/31 05:47:54;;;;;;;172.45;44.33;;;11.20;35.00;;;;;;5099852;28;20105;-61
2020/12/31 05:50:24;;;;;;;162.52;42.20;;;11.10;35.20;;;;;;5102264;28;20099;-63
2020/12/31 05:52:52;;;;;;;161.38;42.95;;;11.20;34.70;;;;;;5088469;28;20130;-63
2020/12/31 05:55:24;;;;;;;173.20;41.90;;;11.20;34.60;;;;;;5101303;28;20071;-63
2020/12/31 05:57:55;;;;;;;149.00;41.83;;;11.20;34.70;;;;;;5081936;28;20106;-63
2020/12/31 06:00:28;;;;;;;153.85;44.10;;;11.20;35.20;;;;;;5108070;28;20070;-64
2020/12/31 06:02:57;;;;;;;147.48;43.03;;;11.10;35.00;;;;;;5109430;28;20504;-63
2020/12/31 06:05:25;;;;;;;146.70;42.42;;;11.10;35.30;;;;;;5104975;28;20072;-62
2020/12/31 06:07:53;;;;;;;176.55;44.22;;;11.10;35.50;;;;;;5099341;28;20061;-63
2020/12/31 06:10:24;;;;;;;155.75;42.47;;;11.10;35.60;;;;;;5097358;28;20112;-61
2020/12/31 06:13:02;;;;;;;157.02;44.85;;;11.10;35.70;;;;;;5108544;28;20101;-62
2020/12/31 06:15:33;;;;;;;147.35;43.53;;;11.00;35.80;;;;;;5108924;28;20094;-62
2020/12/31 06:18:01;;;;;;;146.82;43.45;;;10.90;35.80;;;;;;5108113;28;20202;-57
2020/12/31 06:20:30;;;;;;;160.18;45.28;;;10.90;35.60;;;;;;5106894;28;20060;-61
2020/12/31 06:23:01;;;;;;;177.30;48.42;;;11.00;35.50;;;;;;5106303;28;20421;-58
2020/12/31 06:25:45;;;;;;;162.18;47.20;;;10.90;35.40;;;;;;5101536;28;20073;-60
2020/12/31 06:28:15;;;;;;;158.82;48.20;;;10.90;35.30;;;;;;5104765;28;20118;-58
2020/12/31 06:30:49;;;;;;;166.18;45.63;;;10.90;35.60;;;;;;5090989;28;20146;-60
2020/12/31 06:33:44;;;;;;;149.25;45.30;;;10.90;35.60;;;;;;5090697;28;20064;-58
2020/12/31 06:36:12;;;;;;;162.25;52.67;;;10.80;36.30;;;;;;5099793;28;20156;-59
2020/12/31 06:38:47;;;;;;;170.95;54.05;;;10.70;35.50;;;;;;5109754;28;20066;-61
2020/12/31 06:41:55;;;;;;;203.45;65.10;;;10.80;35.80;;;;;;5109168;28;20113;-61
2020/12/31 06:44:28;;;;;;;157.63;50.15;;;10.70;37.20;;;;;;5045170;28;20127;-59
2020/12/31 06:46:54;;;;;;;162.15;50.75;;;10.70;36.80;;;;;;5095779;28;20514;-61
2020/12/31 06:49:21;;;;;;;175.35;48.92;;;10.60;37.10;;;;;;5109418;28;20113;-59
2020/12/31 06:51:47;;;;;;;174.95;50.33;;;10.60;37.50;;;;;;5112654;28;20077;-59
2020/12/31 06:54:27;;;;;;;;;;;10.60;36.80;;;;;;5111437;28;20470;-59
2020/12/31 06:56:54;;;;;;;165.18;47.78;;;10.50;37.30;;;;;;5112282;28;19949;-60
2020/12/31 06:59:25;;;;;;;;;;;10.40;37.50;;;;;;5112837;28;20086;-59
2020/12/31 07:01:53;;;;;;;166.40;46.17;;;10.40;37.30;;;;;;5111980;28;19954;-60
2020/12/31 07:04:37;;;;;;;173.88;47.78;;;10.50;37.60;;;;;;5109012;28;20523;-61
2020/12/31 07:07:21;;;;;;;155.88;44.70;;;10.50;37.60;;;;;;5106029;28;20110;-59
2020/12/31 07:09:54;;;;;;;174.18;48.88;;;10.50;38.10;;;;;;5106690;28;20078;-61
2020/12/31 07:12:45;;;;;;;169.57;49.20;;;10.50;38.20;;;;;;5100790;28;20060;-59
2020/12/31 07:15:17;;;;;;;165.23;51.17;;;10.50;38.20;;;;;;5101348;28;20086;-62
2020/12/31 07:17:47;;;;;;;155.00;48.13;;;10.40;38.20;;;;;;5111079;28;20592;-62
2020/12/31 07:20:15;;;;;;;146.68;44.58;;;10.30;38.40;;;;;;5110317;28;20126;-61
2020/12/31 07:22:43;;;;;;;143.52;43.97;;;10.20;38.60;;;;;;5083102;28;20173;-60
2020/12/31 07:25:12;;;;;;;172.45;44.75;;;10.20;38.40;;;;;;5098798;28;20168;-59
2020/12/31 07:27:43;;;;;;;159.52;44.63;;;10.20;38.40;;;;;;5104785;28;20062;-61
2020/12/31 07:30:13;;;;;;;147.23;43.63;;;10.30;38.30;;;;;;5086953;28;20085;-61
2020/12/31 07:32:52;;;;;;;155.50;44.28;;;10.20;38.00;;;;;;5106464;28;20066;-58
2020/12/31 07:35:42;;;;;;;125.10;39.75;;;10.20;37.80;;;;;;5107164;28;21031;-61
2020/12/31 07:38:14;;;;;;;149.32;44.78;;;10.10;39.10;;;;;;5097601;28;20490;-62
2020/12/31 07:40:51;;;;;;;151.82;43.30;;;10.00;38.80;;;;;;5104958;28;20432;-61
2020/12/31 07:43:25;;;;;;;163.10;44.42;;;10.00;38.20;;;;;;5106049;28;20082;-63
2020/12/31 07:45:57;;;;;;;160.80;44.85;;;10.10;37.80;;;;;;5105658;28;20067;-61
2020/12/31 07:48:25;;;;;;;149.32;45.63;;;10.00;37.70;;;;;;5072638;28;20510;-61
2020/12/31 07:51:00;;;;;;;154.02;45.85;;;10.00;38.00;;;;;;5082869;28;20086;-61
2020/12/31 07:53:29;;;;;;;160.50;46.90;;;10.00;37.00;;;;;;5065189;28;20070;-61
2020/12/31 07:55:56;;;;;;;152.35;46.58;;;10.00;36.40;;;;;;5084898;28;20149;-61
2020/12/31 07:58:25;;;;;;;142.27;44.83;;;10.00;35.80;;;;;;5067097;28;20119;-62
2020/12/31 08:01:07;;;;;;;164.32;45.35;;;9.90;36.00;;;;;;5083275;28;20905;-61
2020/12/31 08:03:34;;;;;;;166.48;45.75;;;9.90;36.70;;;;;;5065283;28;20083;-58
2020/12/31 08:06:03;;;;;;;133.15;45.13;;;9.90;37.60;;;;;;5087224;28;20128;-59
2020/12/31 08:08:30;;;;;;;168.38;43.95;;;9.90;37.10;;;;;;5069097;28;20073;-59
2020/12/31 08:10:57;;;;;;;173.30;47.60;;;9.80;36.50;;;;;;5085625;28;20096;-60
2020/12/31 08:13:23;;;;;;;153.18;49.00;;;9.90;36.80;;;;;;5085867;28;20572;-60
2020/12/31 08:15:50;;;;;;;;;;;9.80;36.00;;;;;;5088537;28;20071;-59
2020/12/31 08:18:18;;;;;;;182.33;46.70;;;9.70;37.10;;;;;;5069152;28;20374;-61
2020/12/31 08:20:47;;;;;;;147.55;45.38;;;9.80;37.00;;;;;;5083321;28;20192;-61
2020/12/31 08:23:18;;;;;;;165.73;45.30;;;9.80;36.50;;;;;;5084416;28;20070;-59
2020/12/31 08:25:50;;;;;;;150.13;45.17;;;9.90;36.30;;;;;;5069995;28;20076;-59
2020/12/31 08:28:20;;;;;;;157.40;48.03;;;9.80;36.20;;;;;;5067062;28;20521;-61
2020/12/31 08:30:47;;;;;;;190.75;48.70;;;9.80;35.50;;;;;;5066906;28;20088;-61
2020/12/31 08:33:13;;;;;;;187.10;48.38;;;9.70;36.20;;;;;;5065470;28;20512;-59
2020/12/31 08:35:46;;;;;;;173.48;46.30;;;9.70;35.30;;;;;;5083200;28;20074;-59
2020/12/31 08:38:23;;;;;;;167.43;47.42;;;9.60;36.40;;;;;;5086748;28;20080;-59
2020/12/31 08:40:56;;;;;;;164.15;46.97;;;9.70;36.40;;;;;;5085613;28;20471;-60
2020/12/31 08:43:31;;;;;;;152.73;44.35;;;9.70;36.40;;;;;;5082971;28;20082;-59
2020/12/31 08:45:59;;;;;;;194.55;48.70;;;9.70;36.00;;;;;;5063342;28;20652;-62
2020/12/31 08:48:31;;;;;;;173.07;46.95;;;9.70;35.80;;;;;;5063629;28;20093;-63
2020/12/31 08:51:05;;;;;;;140.65;44.95;;;9.80;36.30;;;;;;5081829;28;20525;-61
2020/12/31 08:53:33;;;;;;;171.15;47.20;;;9.80;36.70;;;;;;5082922;28;20060;-60
2020/12/31 08:56:00;;;;;;;165.88;48.72;;;9.70;37.20;;;;;;5085337;28;20089;-61
2020/12/31 08:58:27;;;;;;;;;;;9.70;36.70;;;;;;5099593;28;20083;-62
2020/12/31 09:00:54;;;;;;;173.65;49.15;;;9.60;37.00;;;;;;5081552;28;20360;-59
2020/12/31 09:03:21;;;;;;;149.73;47.45;;;9.60;37.30;;;;;;5081384;28;20073;-63
2020/12/31 09:06:02;;;;;;;160.23;46.90;;;9.60;36.70;;;;;;5081122;28;20072;-64
2020/12/31 09:08:32;;;;;;;160.88;48.60;;;9.40;35.80;;;;;;5079904;28;20062;-60
2020/12/31 09:11:06;;;;;;;170.68;48.97;;;9.30;36.10;;;;;;5066687;28;20137;-59
2020/12/31 09:13:37;;;;;;;156.25;45.45;;;9.20;37.70;;;;;;5081659;28;20130;-60
2020/12/31 09:16:14;;;;;;;159.15;44.63;;;9.30;36.80;;;;;;5060808;28;20584;-59
2020/12/31 09:18:41;;;;;;;168.80;45.47;;;9.10;35.80;;;;;;5084672;28;20392;-58
2020/12/31 09:21:09;;;;;;;143.68;44.85;;;9.20;36.10;;;;;;5085618;28;20331;-60
2020/12/31 09:23:36;;;;;;;155.23;44.70;;;9.20;36.90;;;;;;5085385;28;20108;-60
2020/12/31 09:26:03;;;;;;;157.27;44.20;;;9.20;36.50;;;;;;5084278;28;20107;-60
2020/12/31 09:28:31;;;;;;;159.05;43.50;;;9.30;37.00;;;;;;5080709;28;20173;-61
2020/12/31 09:31:14;;;;;;;154.68;45.08;;;9.40;37.10;;;;;;5082702;28;20103;-61
2020/12/31 09:33:41;;;;;;;155.65;43.60;;;9.40;37.20;;;;;;5079502;28;20061;-60
2020/12/31 09:36:08;;;;;;;152.20;44.75;;;9.40;38.00;;;;;;5046572;28;20545;-58
2020/12/31 09:38:34;;;;;;;;;;;9.50;37.30;;;;;;5065069;28;20061;-60
2020/12/31 09:41:00;;;;;;;163.00;42.05;;;9.40;37.70;;;;;;5081630;28;19951;-58
2020/12/31 09:43:26;;;;;;;;;;;9.30;38.20;;;;;;5083237;28;20116;-59
2020/12/31 09:45:53;;;;;;;154.50;42.17;;;9.20;38.30;;;;;;5081469;28;19960;-59
2020/12/31 09:48:19;;;;;;;;;;;9.20;38.10;;;;;;5079875;28;20109;-60
2020/12/31 09:50:46;;;;;;;161.05;41.30;;;9.10;37.20;;;;;;5084624;28;19968;-61
2020/12/31 09:53:12;;;;;;;155.48;41.45;;;9.10;37.90;;;;;;5067446;28;20460;-60
2020/12/31 09:55:38;;;;;;;;;;;9.10;38.70;;;;;;5085637;28;20075;-61
2020/12/31 09:58:05;;;;;;;153.32;40.45;;;9.00;38.70;;;;;;5064401;28;19973;-59
2020/12/31 10:00:31;;;;;;;;;;;9.10;38.40;;;;;;5065556;28;20065;-60
2020/12/31 10:02:57;;;;;;;149.55;41.30;;;9.10;38.40;;;;;;5083221;28;19945;-60
2020/12/31 10:05:25;;;;;;;;;;;9.00;38.50;;;;;;5080801;28;20103;-59
2020/12/31 10:07:51;;;;;;;162.75;39.35;;;9.00;36.80;;;;;;5080963;28;20369;-57
2020/12/31 10:10:17;;;;;;;;;;;9.00;35.90;;;;;;5084815;28;20176;-60
2020/12/31 10:12:44;;;;;;;126.50;36.22;;;8.90;34.70;;;;;;5080936;28;20115;-59
2020/12/31 10:15:10;;;;;;;145.60;38.38;;;9.00;35.10;;;;;;5081748;28;20177;-58
2020/12/31 10:17:37;;;;;;;;;;;9.10;34.90;;;;;;5083706;28;20451;-58
2020/12/31 10:20:05;;;;;;;128.35;39.13;;;9.20;34.50;;;;;;5081404;28;19981;-59
2020/12/31 10:22:32;;;;;;;136.93;40.20;;;9.20;34.10;;;;;;5086990;28;20115;-56
2020/12/31 10:24:59;;;;;;;120.32;39.13;;;9.20;34.20;;;;;;5066349;28;20067;-60
2020/12/31 10:27:25;;;;;;;;;;;9.30;34.60;;;;;;5083377;28;20119;-59
2020/12/31 10:29:52;;;;;;;120.28;34.95;;;9.20;35.20;;;;;;5064812;28;19971;-58
2020/12/31 10:32:19;;;;;;;121.60;35.33;;;9.10;35.00;;;;;;5080574;28;20119;-59
2020/12/31 10:34:45;;;;;;;105.28;34.50;;;9.10;35.30;;;;;;5084549;28;20076;-58
2020/12/31 10:37:12;;;;;;;;;;;9.10;35.50;;;;;;5083659;28;20064;-59
2020/12/31 10:39:38;;;;;;;113.28;35.58;;;9.10;36.20;;;;;;5082522;28;19953;-61
2020/12/31 10:42:05;;;;;;;;;;;9.00;36.60;;;;;;5085492;28;20083;-60
2020/12/31 10:44:32;;;;;;;109.10;33.90;;;8.90;37.80;;;;;;5065268;28;19952;-59
2020/12/31 10:46:58;;;;;;;;;;;9.00;37.30;;;;;;5079210;28;20065;-64
2020/12/31 10:49:24;;;;;;;126.43;37.05;;;9.00;36.80;;;;;;5102511;28;20042;-57
2020/12/31 10:51:51;;;;;;;;;;;9.00;36.20;;;;;;5106567;28;20077;-58
2020/12/31 10:54:18;;;;;;;156.68;61.22;;;8.90;35.70;;;;;;5101407;28;20014;-59
2020/12/31 10:56:44;;;;;;;;;;;8.90;38.20;;;;;;5084266;28;20168;-61
2020/12/31 10:59:10;;;;;;;169.95;68.88;;;9.00;37.80;;;;;;5082927;28;20003;-60
2020/12/31 11:01:37;;;;;;;168.77;67.82;;;9.00;37.50;;;;;;5103767;28;20055;-59
2020/12/31 11:04:04;;;;;;;154.88;59.95;;;9.00;38.30;;;;;;5101862;28;20028;-59
2020/12/31 11:06:30;;;;;;;;;;;8.90;37.00;;;;;;5096509;28;20464;-60
2020/12/31 11:08:57;;;;;;;145.88;53.00;;;9.00;37.30;;;;;;5100902;28;19943;-61
2020/12/31 11:11:30;;;;;;;137.00;46.70;;;9.00;37.50;;;;;;5101578;28;20112;-60
2020/12/31 11:13:57;;;;;;;110.55;45.75;;;8.80;36.10;;;;;;5101524;28;20480;-60
2020/12/31 11:16:24;;;;;;;118.85;42.53;;;8.70;36.30;;;;;;5102688;28;20434;-61
2020/12/31 11:18:50;;;;;;;;;;;8.70;36.90;;;;;;5101445;28;20019;-59
2020/12/31 11:21:19;;;;;;;106.88;38.97;;;8.80;37.40;;;;;;5102261;28;20288;-58
2020/12/31 11:23:46;;;;;;;118.25;38.97;;;8.80;37.10;;;;;;5101455;28;20023;-59
2020/12/31 11:26:17;;;;;;;112.28;34.50;;;8.70;36.90;;;;;;5101889;28;20103;-60
2020/12/31 11:28:46;;;;;;;97.13;36.05;;;8.80;37.70;;;;;;5088310;28;20157;-61
2020/12/31 11:31:13;;;;;;;105.03;35.92;;;8.70;38.80;;;;;;5109095;28;20032;-59
2020/12/31 11:33:46;;;;;;;100.65;34.72;;;8.80;38.90;;;;;;5105591;28;20084;-61
2020/12/31 11:36:13;;;;;;;103.22;34.35;;;8.70;51.30;;;;;;5106319;28;20028;-57
2020/12/31 11:38:40;;;;;;;117.70;34.63;;;8.80;37.90;;;;;;5085900;28;20019;-61
2020/12/31 11:41:08;;;;;;;102.00;33.25;;;8.80;38.30;;;;;;5104755;28;20396;-60
2020/12/31 11:43:35;;;;;;;99.45;33.10;;;8.70;38.30;;;;;;5088550;28;21055;-60
2020/12/31 11:46:04;;;;;;;96.13;32.65;;;8.70;37.80;;;;;;5106673;28;20031;-61
2020/12/31 11:48:30;;;;;;;105.55;33.72;;;8.70;37.80;;;;;;5089134;28;20047;-62
2020/12/31 11:50:57;;;;;;;80.57;32.92;;;8.60;37.60;;;;;;5110037;28;20066;-60
2020/12/31 11:53:23;;;;;;;;;;;8.50;37.80;;;;;;5111044;28;20020;-60
2020/12/31 11:55:50;;;;;;;98.05;30.52;;;8.40;37.60;;;;;;5088944;28;20283;-58
2020/12/31 11:58:17;;;;;;;95.72;29.55;;;8.50;38.00;;;;;;5108706;28;20024;-60
2020/12/31 12:00:44;;;;;;;98.95;29.13;;;8.50;39.10;;;;;;5106590;28;20043;-58
2020/12/31 12:03:11;;;;;;;74.93;29.77;;;8.50;38.80;;;;;;5111883;28;20050;-59
2020/12/31 12:05:38;;;;;;;86.60;29.13;;;8.50;38.80;;;;;;5109608;28;20379;-58
2020/12/31 12:08:04;;;;;;;;;;;8.60;38.50;;;;;;5109506;28;20031;-60
2020/12/31 12:10:31;;;;;;;85.80;26.85;;;8.60;38.90;;;;;;5088176;28;19919;-59
2020/12/31 12:12:58;;;;;;;90.60;27.65;;;8.50;38.60;;;;;;5109033;28;20344;-60
2020/12/31 12:15:24;;;;;;;;;;;8.50;38.80;;;;;;5091311;28;20032;-61
2020/12/31 12:17:51;;;;;;;79.40;27.35;;;8.40;38.00;;;;;;5108835;28;20047;-60
2020/12/31 12:20:19;;;;;;;83.50;27.02;;;8.30;38.10;;;;;;5105354;28;20348;-60
2020/12/31 12:22:45;;;;;;;80.78;27.17;;;8.30;39.10;;;;;;5107997;28;20020;-61
2020/12/31 12:25:12;;;;;;;;;;;8.20;39.40;;;;;;5108378;28;20066;-59
2020/12/31 12:27:40;;;;;;;84.65;27.38;;;8.30;39.10;;;;;;5109282;28;19935;-60
2020/12/31 12:30:10;;;;;;;93.78;27.40;;;8.30;38.80;;;;;;5109288;28;20035;-57
2020/12/31 12:32:40;;;;;;;82.85;27.15;;;8.30;39.20;;;;;;5085493;28;20035;-61
2020/12/31 12:35:08;;;;;;;101.75;28.10;;;8.20;39.80;;;;;;5108008;28;20026;-61
2020/12/31 12:37:35;;;;;;;70.85;28.20;;;8.20;40.80;;;;;;5107783;28;20047;-59
2020/12/31 12:40:06;;;;;;;77.53;26.35;;;8.20;40.10;;;;;;5108297;28;20080;-59
2020/12/31 12:42:33;;;;;;;83.97;25.33;;;8.30;39.90;;;;;;5109258;28;20027;-59
2020/12/31 12:45:00;;;;;;;83.18;26.55;;;8.10;39.30;;;;;;5076271;28;20028;-61
2020/12/31 12:47:27;;;;;;;74.68;25.83;;;8.00;39.40;;;;;;5103493;28;20036;-60
2020/12/31 12:49:54;;;;;;;85.22;25.33;;;8.00;39.50;;;;;;5082552;28;20027;-60
2020/12/31 12:52:20;;;;;;;76.15;24.17;;;7.90;39.20;;;;;;5088460;28;20097;-59